sensor_id;sensor_type;location;lat;lon;timestamp;P1;durP1;ratioP1;P2;durP2;ratioP2
7336;SDS011;54510;42.016;23.098;2024-02-21T00:02:17;18.00;;;10.07;;
7336;SDS011;54510;42.016;23.098;2024-02-21T00:04:43;20.80;;;10.60;;
7336;SDS011;54510;42.016;23.098;2024-02-21T00:07:08;18.45;;;9.60;;
7336;SDS011;54510;42.016;23.098;2024-02-21T00:09:33;15.43;;;9.07;;
7336;SDS011;54510;42.016;23.098;2024-02-21T00:11:59;13.75;;;7.38;;
7336;SDS011;54510;42.016;23.098;2024-02-21T00:14:26;11.50;;;6.95;;
7336;SDS011;54510;42.016;23.098;2024-02-21T00:16:51;10.38;;;6.20;;
7336;SDS011;54510;42.016;23.098;2024-02-21T00:19:16;12.50;;;6.22;;
7336;SDS011;54510;42.016;23.098;2024-02-21T00:21:41;12.52;;;5.95;;
7336;SDS011;54510;42.016;23.098;2024-02-21T00:24:07;10.73;;;6.75;;
7336;SDS011;54510;42.016;23.098;2024-02-21T00:26:32;12.73;;;6.65;;
7336;SDS011;54510;42.016;23.098;2024-02-21T00:28:57;9.60;;;6.13;;
7336;SDS011;54510;42.016;23.098;2024-02-21T00:31:22;10.43;;;6.47;;
7336;SDS011;54510;42.016;23.098;2024-02-21T00:33:48;14.98;;;7.50;;
7336;SDS011;54510;42.016;23.098;2024-02-21T00:36:13;10.90;;;6.32;;
7336;SDS011;54510;42.016;23.098;2024-02-21T00:38:39;14.00;;;6.43;;
7336;SDS011;54510;42.016;23.098;2024-02-21T00:41:05;12.80;;;6.45;;
7336;SDS011;54510;42.016;23.098;2024-02-21T00:43:30;10.45;;;5.88;;
7336;SDS011;54510;42.016;23.098;2024-02-21T00:45:55;11.93;;;6.50;;
7336;SDS011;54510;42.016;23.098;2024-02-21T00:48:21;9.85;;;5.30;;
7336;SDS011;54510;42.016;23.098;2024-02-21T00:50:46;12.52;;;6.10;;
7336;SDS011;54510;42.016;23.098;2024-02-21T00:53:12;10.13;;;5.90;;
7336;SDS011;54510;42.016;23.098;2024-02-21T00:55:37;8.90;;;5.93;;
7336;SDS011;54510;42.016;23.098;2024-02-21T00:58:02;13.73;;;6.80;;
7336;SDS011;54510;42.016;23.098;2024-02-21T01:00:28;13.05;;;6.22;;
7336;SDS011;54510;42.016;23.098;2024-02-21T01:02:53;15.18;;;6.43;;
7336;SDS011;54510;42.016;23.098;2024-02-21T01:05:18;16.38;;;9.05;;
7336;SDS011;54510;42.016;23.098;2024-02-21T01:07:45;14.68;;;9.52;;
7336;SDS011;54510;42.016;23.098;2024-02-21T01:10:10;15.98;;;9.20;;
7336;SDS011;54510;42.016;23.098;2024-02-21T01:12:35;18.20;;;11.25;;
7336;SDS011;54510;42.016;23.098;2024-02-21T01:15:01;20.83;;;11.18;;
7336;SDS011;54510;42.016;23.098;2024-02-21T01:17:26;22.80;;;13.07;;
7336;SDS011;54510;42.016;23.098;2024-02-21T01:19:51;20.15;;;11.77;;
7336;SDS011;54510;42.016;23.098;2024-02-21T01:22:16;22.23;;;12.65;;
7336;SDS011;54510;42.016;23.098;2024-02-21T01:24:42;23.70;;;12.27;;
7336;SDS011;54510;42.016;23.098;2024-02-21T01:27:08;25.70;;;13.73;;
7336;SDS011;54510;42.016;23.098;2024-02-21T01:29:33;28.35;;;14.05;;
7336;SDS011;54510;42.016;23.098;2024-02-21T01:31:58;21.58;;;12.25;;
7336;SDS011;54510;42.016;23.098;2024-02-21T01:34:24;22.70;;;13.43;;
7336;SDS011;54510;42.016;23.098;2024-02-21T01:36:49;21.73;;;12.73;;
7336;SDS011;54510;42.016;23.098;2024-02-21T01:39:14;25.88;;;12.20;;
7336;SDS011;54510;42.016;23.098;2024-02-21T01:41:39;25.00;;;12.73;;
7336;SDS011;54510;42.016;23.098;2024-02-21T01:44:05;21.27;;;11.93;;
7336;SDS011;54510;42.016;23.098;2024-02-21T01:46:30;18.85;;;11.68;;
7336;SDS011;54510;42.016;23.098;2024-02-21T01:48:56;22.60;;;13.30;;
7336;SDS011;54510;42.016;23.098;2024-02-21T01:51:21;27.63;;;12.13;;
7336;SDS011;54510;42.016;23.098;2024-02-21T01:53:47;20.48;;;11.98;;
7336;SDS011;54510;42.016;23.098;2024-02-21T01:56:12;22.40;;;11.35;;
7336;SDS011;54510;42.016;23.098;2024-02-21T01:58:38;17.52;;;11.68;;
7336;SDS011;54510;42.016;23.098;2024-02-21T02:01:04;20.92;;;11.07;;
7336;SDS011;54510;42.016;23.098;2024-02-21T02:03:29;21.50;;;10.90;;
7336;SDS011;54510;42.016;23.098;2024-02-21T02:05:56;24.13;;;12.05;;
7336;SDS011;54510;42.016;23.098;2024-02-21T02:08:21;19.33;;;12.68;;
7336;SDS011;54510;42.016;23.098;2024-02-21T02:10:49;23.17;;;12.75;;
7336;SDS011;54510;42.016;23.098;2024-02-21T02:13:15;23.98;;;13.00;;
7336;SDS011;54510;42.016;23.098;2024-02-21T02:15:40;22.48;;;12.52;;
7336;SDS011;54510;42.016;23.098;2024-02-21T02:18:06;22.50;;;12.02;;
7336;SDS011;54510;42.016;23.098;2024-02-21T02:20:31;25.63;;;12.55;;
7336;SDS011;54510;42.016;23.098;2024-02-21T02:22:57;23.75;;;13.13;;
7336;SDS011;54510;42.016;23.098;2024-02-21T02:25:24;22.02;;;12.95;;
7336;SDS011;54510;42.016;23.098;2024-02-21T02:27:49;21.52;;;12.98;;
7336;SDS011;54510;42.016;23.098;2024-02-21T02:30:15;22.13;;;12.65;;
7336;SDS011;54510;42.016;23.098;2024-02-21T02:32:43;21.65;;;13.45;;
7336;SDS011;54510;42.016;23.098;2024-02-21T02:35:09;22.85;;;12.50;;
7336;SDS011;54510;42.016;23.098;2024-02-21T02:37:34;25.98;;;12.38;;
7336;SDS011;54510;42.016;23.098;2024-02-21T02:39:59;21.33;;;11.57;;
7336;SDS011;54510;42.016;23.098;2024-02-21T02:42:24;19.05;;;10.88;;
7336;SDS011;54510;42.016;23.098;2024-02-21T02:44:50;17.80;;;9.63;;
7336;SDS011;54510;42.016;23.098;2024-02-21T02:47:15;14.88;;;10.05;;
7336;SDS011;54510;42.016;23.098;2024-02-21T02:49:40;13.55;;;8.20;;
7336;SDS011;54510;42.016;23.098;2024-02-21T02:52:05;13.48;;;7.28;;
7336;SDS011;54510;42.016;23.098;2024-02-21T02:54:31;17.58;;;9.23;;
7336;SDS011;54510;42.016;23.098;2024-02-21T02:56:56;13.57;;;7.90;;
7336;SDS011;54510;42.016;23.098;2024-02-21T02:59:21;9.98;;;6.97;;
7336;SDS011;54510;42.016;23.098;2024-02-21T03:01:46;12.25;;;7.43;;
7336;SDS011;54510;42.016;23.098;2024-02-21T03:04:12;15.80;;;8.07;;
7336;SDS011;54510;42.016;23.098;2024-02-21T03:06:37;13.38;;;7.90;;
7336;SDS011;54510;42.016;23.098;2024-02-21T03:09:02;12.02;;;7.35;;
7336;SDS011;54510;42.016;23.098;2024-02-21T03:11:33;13.45;;;7.35;;
7336;SDS011;54510;42.016;23.098;2024-02-21T03:13:58;17.08;;;7.10;;
7336;SDS011;54510;42.016;23.098;2024-02-21T03:16:23;15.57;;;7.55;;
7336;SDS011;54510;42.016;23.098;2024-02-21T03:18:49;11.75;;;6.07;;
7336;SDS011;54510;42.016;23.098;2024-02-21T03:21:14;8.95;;;5.88;;
7336;SDS011;54510;42.016;23.098;2024-02-21T03:23:39;12.07;;;7.10;;
7336;SDS011;54510;42.016;23.098;2024-02-21T03:26:05;11.10;;;6.63;;
7336;SDS011;54510;42.016;23.098;2024-02-21T03:28:30;15.27;;;7.10;;
7336;SDS011;54510;42.016;23.098;2024-02-21T03:30:55;12.65;;;7.03;;
7336;SDS011;54510;42.016;23.098;2024-02-21T03:33:21;18.92;;;10.23;;
7336;SDS011;54510;42.016;23.098;2024-02-21T03:35:48;23.38;;;11.68;;
7336;SDS011;54510;42.016;23.098;2024-02-21T03:38:13;25.88;;;13.25;;
7336;SDS011;54510;42.016;23.098;2024-02-21T03:40:38;21.90;;;13.95;;
7336;SDS011;54510;42.016;23.098;2024-02-21T03:43:04;24.13;;;14.05;;
7336;SDS011;54510;42.016;23.098;2024-02-21T03:45:29;28.77;;;14.98;;
7336;SDS011;54510;42.016;23.098;2024-02-21T03:47:54;25.50;;;13.38;;
7336;SDS011;54510;42.016;23.098;2024-02-21T03:50:19;27.38;;;13.40;;
7336;SDS011;54510;42.016;23.098;2024-02-21T03:52:45;26.60;;;14.60;;
7336;SDS011;54510;42.016;23.098;2024-02-21T03:55:10;25.40;;;13.88;;
7336;SDS011;54510;42.016;23.098;2024-02-21T03:57:35;24.98;;;13.18;;
7336;SDS011;54510;42.016;23.098;2024-02-21T04:00:01;23.67;;;15.57;;
7336;SDS011;54510;42.016;23.098;2024-02-21T04:02:26;29.83;;;14.25;;
7336;SDS011;54510;42.016;23.098;2024-02-21T04:04:51;22.10;;;14.77;;
7336;SDS011;54510;42.016;23.098;2024-02-21T04:07:16;24.15;;;14.25;;
7336;SDS011;54510;42.016;23.098;2024-02-21T04:09:42;26.55;;;12.35;;
7336;SDS011;54510;42.016;23.098;2024-02-21T04:12:08;19.98;;;12.07;;
7336;SDS011;54510;42.016;23.098;2024-02-21T04:14:33;29.48;;;14.32;;
7336;SDS011;54510;42.016;23.098;2024-02-21T04:16:59;15.07;;;9.18;;
7336;SDS011;54510;42.016;23.098;2024-02-21T04:19:25;13.88;;;7.80;;
7336;SDS011;54510;42.016;23.098;2024-02-21T04:21:50;16.90;;;9.27;;
7336;SDS011;54510;42.016;23.098;2024-02-21T04:24:15;11.38;;;7.50;;
7336;SDS011;54510;42.016;23.098;2024-02-21T04:26:40;14.95;;;8.73;;
7336;SDS011;54510;42.016;23.098;2024-02-21T04:29:05;11.63;;;7.15;;
7336;SDS011;54510;42.016;23.098;2024-02-21T04:31:32;14.55;;;7.32;;
7336;SDS011;54510;42.016;23.098;2024-02-21T04:33:57;14.35;;;6.93;;
7336;SDS011;54510;42.016;23.098;2024-02-21T04:36:22;11.60;;;6.00;;
7336;SDS011;54510;42.016;23.098;2024-02-21T04:38:48;14.68;;;8.48;;
7336;SDS011;54510;42.016;23.098;2024-02-21T04:41:15;11.93;;;7.25;;
7336;SDS011;54510;42.016;23.098;2024-02-21T04:43:40;14.55;;;7.45;;
7336;SDS011;54510;42.016;23.098;2024-02-21T04:46:05;11.00;;;8.25;;
7336;SDS011;54510;42.016;23.098;2024-02-21T04:48:31;14.10;;;7.80;;
7336;SDS011;54510;42.016;23.098;2024-02-21T04:50:56;16.05;;;9.30;;
7336;SDS011;54510;42.016;23.098;2024-02-21T04:53:21;11.10;;;6.68;;
7336;SDS011;54510;42.016;23.098;2024-02-21T04:55:47;15.88;;;9.63;;
7336;SDS011;54510;42.016;23.098;2024-02-21T04:58:12;19.40;;;9.27;;
7336;SDS011;54510;42.016;23.098;2024-02-21T05:00:37;16.13;;;7.43;;
7336;SDS011;54510;42.016;23.098;2024-02-21T05:03:02;19.92;;;8.77;;
7336;SDS011;54510;42.016;23.098;2024-02-21T05:05:28;13.25;;;7.70;;
7336;SDS011;54510;42.016;23.098;2024-02-21T05:07:53;14.20;;;7.70;;
7336;SDS011;54510;42.016;23.098;2024-02-21T05:10:18;14.65;;;8.02;;
7336;SDS011;54510;42.016;23.098;2024-02-21T05:12:44;15.73;;;8.15;;
7336;SDS011;54510;42.016;23.098;2024-02-21T05:15:09;10.60;;;6.88;;
7336;SDS011;54510;42.016;23.098;2024-02-21T05:17:35;14.50;;;7.38;;
7336;SDS011;54510;42.016;23.098;2024-02-21T05:20:00;12.10;;;7.30;;
7336;SDS011;54510;42.016;23.098;2024-02-21T05:22:25;14.13;;;8.95;;
7336;SDS011;54510;42.016;23.098;2024-02-21T05:24:51;18.40;;;6.22;;
7336;SDS011;54510;42.016;23.098;2024-02-21T05:27:16;12.43;;;6.53;;
7336;SDS011;54510;42.016;23.098;2024-02-21T05:29:41;12.10;;;6.38;;
7336;SDS011;54510;42.016;23.098;2024-02-21T05:32:06;12.23;;;6.28;;
7336;SDS011;54510;42.016;23.098;2024-02-21T05:34:32;12.15;;;6.15;;
7336;SDS011;54510;42.016;23.098;2024-02-21T05:36:57;12.45;;;6.90;;
7336;SDS011;54510;42.016;23.098;2024-02-21T05:39:24;13.20;;;5.88;;
7336;SDS011;54510;42.016;23.098;2024-02-21T05:41:50;10.57;;;5.78;;
7336;SDS011;54510;42.016;23.098;2024-02-21T05:44:15;14.60;;;7.45;;
7336;SDS011;54510;42.016;23.098;2024-02-21T05:46:41;14.43;;;8.43;;
7336;SDS011;54510;42.016;23.098;2024-02-21T05:49:06;13.30;;;7.10;;
7336;SDS011;54510;42.016;23.098;2024-02-21T05:51:32;20.10;;;8.80;;
7336;SDS011;54510;42.016;23.098;2024-02-21T05:53:58;16.92;;;9.07;;
7336;SDS011;54510;42.016;23.098;2024-02-21T05:56:23;23.17;;;12.25;;
7336;SDS011;54510;42.016;23.098;2024-02-21T05:58:48;23.63;;;14.15;;
7336;SDS011;54510;42.016;23.098;2024-02-21T06:01:14;26.00;;;13.52;;
7336;SDS011;54510;42.016;23.098;2024-02-21T06:03:39;15.68;;;8.60;;
7336;SDS011;54510;42.016;23.098;2024-02-21T06:06:05;20.92;;;8.07;;
7336;SDS011;54510;42.016;23.098;2024-02-21T06:08:30;14.80;;;7.32;;
7336;SDS011;54510;42.016;23.098;2024-02-21T06:10:55;24.58;;;14.48;;
7336;SDS011;54510;42.016;23.098;2024-02-21T06:13:21;17.25;;;9.52;;
7336;SDS011;54510;42.016;23.098;2024-02-21T06:15:47;17.60;;;8.07;;
7336;SDS011;54510;42.016;23.098;2024-02-21T06:18:12;114.30;;;58.47;;
7336;SDS011;54510;42.016;23.098;2024-02-21T06:20:37;35.95;;;18.90;;
7336;SDS011;54510;42.016;23.098;2024-02-21T06:23:05;24.70;;;13.27;;
7336;SDS011;54510;42.016;23.098;2024-02-21T06:25:30;21.88;;;11.77;;
7336;SDS011;54510;42.016;23.098;2024-02-21T06:27:55;22.08;;;11.15;;
7336;SDS011;54510;42.016;23.098;2024-02-21T06:30:21;19.27;;;9.90;;
7336;SDS011;54510;42.016;23.098;2024-02-21T06:32:46;22.90;;;10.57;;
7336;SDS011;54510;42.016;23.098;2024-02-21T06:35:11;25.77;;;14.80;;
7336;SDS011;54510;42.016;23.098;2024-02-21T06:37:36;24.35;;;14.05;;
7336;SDS011;54510;42.016;23.098;2024-02-21T06:40:03;30.00;;;14.57;;
7336;SDS011;54510;42.016;23.098;2024-02-21T06:42:29;25.15;;;13.48;;
7336;SDS011;54510;42.016;23.098;2024-02-21T06:44:54;22.95;;;14.23;;
7336;SDS011;54510;42.016;23.098;2024-02-21T06:47:21;29.42;;;15.57;;
7336;SDS011;54510;42.016;23.098;2024-02-21T06:49:49;30.73;;;15.50;;
7336;SDS011;54510;42.016;23.098;2024-02-21T06:52:17;39.10;;;18.92;;
7336;SDS011;54510;42.016;23.098;2024-02-21T06:54:42;36.42;;;18.15;;
7336;SDS011;54510;42.016;23.098;2024-02-21T06:57:07;36.90;;;19.38;;
7336;SDS011;54510;42.016;23.098;2024-02-21T06:59:33;50.90;;;25.08;;
7336;SDS011;54510;42.016;23.098;2024-02-21T07:01:58;51.03;;;26.20;;
7336;SDS011;54510;42.016;23.098;2024-02-21T07:04:23;70.78;;;29.15;;
7336;SDS011;54510;42.016;23.098;2024-02-21T07:06:48;61.92;;;30.02;;
7336;SDS011;54510;42.016;23.098;2024-02-21T07:09:14;71.18;;;31.10;;
7336;SDS011;54510;42.016;23.098;2024-02-21T07:11:39;54.65;;;29.88;;
7336;SDS011;54510;42.016;23.098;2024-02-21T07:14:04;49.20;;;25.63;;
7336;SDS011;54510;42.016;23.098;2024-02-21T07:16:29;51.90;;;27.08;;
7336;SDS011;54510;42.016;23.098;2024-02-21T07:18:57;83.15;;;43.38;;
7336;SDS011;54510;42.016;23.098;2024-02-21T07:21:23;95.43;;;53.92;;
7336;SDS011;54510;42.016;23.098;2024-02-21T07:23:48;76.30;;;43.10;;
7336;SDS011;54510;42.016;23.098;2024-02-21T07:26:13;56.10;;;32.40;;
7336;SDS011;54510;42.016;23.098;2024-02-21T07:28:38;48.10;;;29.08;;
7336;SDS011;54510;42.016;23.098;2024-02-21T07:31:04;35.35;;;21.88;;
7336;SDS011;54510;42.016;23.098;2024-02-21T07:33:29;32.72;;;18.83;;
7336;SDS011;54510;42.016;23.098;2024-02-21T07:35:56;30.33;;;18.05;;
7336;SDS011;54510;42.016;23.098;2024-02-21T07:38:21;26.88;;;15.57;;
7336;SDS011;54510;42.016;23.098;2024-02-21T07:40:47;31.02;;;17.48;;
7336;SDS011;54510;42.016;23.098;2024-02-21T07:43:13;32.15;;;16.42;;
7336;SDS011;54510;42.016;23.098;2024-02-21T07:45:38;99.40;;;53.55;;
7336;SDS011;54510;42.016;23.098;2024-02-21T07:48:05;76.68;;;39.15;;
7336;SDS011;54510;42.016;23.098;2024-02-21T07:50:30;93.95;;;49.25;;
7336;SDS011;54510;42.016;23.098;2024-02-21T07:52:55;29.73;;;17.10;;
7336;SDS011;54510;42.016;23.098;2024-02-21T07:55:21;33.05;;;16.33;;
7336;SDS011;54510;42.016;23.098;2024-02-21T07:57:46;39.45;;;22.33;;
7336;SDS011;54510;42.016;23.098;2024-02-21T08:00:11;36.25;;;19.42;;
7336;SDS011;54510;42.016;23.098;2024-02-21T08:02:44;46.15;;;20.67;;
7336;SDS011;54510;42.016;23.098;2024-02-21T08:05:09;40.70;;;23.15;;
7336;SDS011;54510;42.016;23.098;2024-02-21T08:07:36;38.42;;;23.83;;
7336;SDS011;54510;42.016;23.098;2024-02-21T08:10:02;33.50;;;18.45;;
7336;SDS011;54510;42.016;23.098;2024-02-21T08:12:27;37.25;;;20.77;;
7336;SDS011;54510;42.016;23.098;2024-02-21T08:14:53;45.70;;;24.83;;
7336;SDS011;54510;42.016;23.098;2024-02-21T08:17:18;37.38;;;16.50;;
7336;SDS011;54510;42.016;23.098;2024-02-21T08:19:43;35.88;;;18.48;;
7336;SDS011;54510;42.016;23.098;2024-02-21T08:22:08;33.08;;;18.08;;
7336;SDS011;54510;42.016;23.098;2024-02-21T08:24:33;28.45;;;12.55;;
7336;SDS011;54510;42.016;23.098;2024-02-21T08:26:59;19.30;;;11.68;;
7336;SDS011;54510;42.016;23.098;2024-02-21T08:29:24;28.65;;;13.07;;
7336;SDS011;54510;42.016;23.098;2024-02-21T08:31:49;24.45;;;12.35;;
7336;SDS011;54510;42.016;23.098;2024-02-21T08:34:15;25.65;;;13.00;;
7336;SDS011;54510;42.016;23.098;2024-02-21T08:36:40;16.33;;;9.90;;
7336;SDS011;54510;42.016;23.098;2024-02-21T08:39:05;15.57;;;9.65;;
7336;SDS011;54510;42.016;23.098;2024-02-21T08:41:31;19.58;;;10.63;;
7336;SDS011;54510;42.016;23.098;2024-02-21T08:43:56;20.73;;;11.63;;
7336;SDS011;54510;42.016;23.098;2024-02-21T08:46:21;20.00;;;11.27;;
7336;SDS011;54510;42.016;23.098;2024-02-21T08:48:49;21.52;;;9.65;;
7336;SDS011;54510;42.016;23.098;2024-02-21T08:51:14;12.90;;;8.43;;
7336;SDS011;54510;42.016;23.098;2024-02-21T08:53:39;21.95;;;10.23;;
7336;SDS011;54510;42.016;23.098;2024-02-21T08:56:05;13.48;;;9.45;;
7336;SDS011;54510;42.016;23.098;2024-02-21T08:58:30;17.75;;;10.07;;
7336;SDS011;54510;42.016;23.098;2024-02-21T09:00:56;14.27;;;8.95;;
7336;SDS011;54510;42.016;23.098;2024-02-21T09:03:21;16.67;;;9.25;;
7336;SDS011;54510;42.016;23.098;2024-02-21T09:05:47;20.70;;;9.60;;
7336;SDS011;54510;42.016;23.098;2024-02-21T09:08:12;17.55;;;10.50;;
7336;SDS011;54510;42.016;23.098;2024-02-21T09:10:38;18.92;;;9.45;;
7336;SDS011;54510;42.016;23.098;2024-02-21T09:13:04;15.60;;;10.13;;
7336;SDS011;54510;42.016;23.098;2024-02-21T09:15:29;12.02;;;8.05;;
7336;SDS011;54510;42.016;23.098;2024-02-21T09:17:54;13.20;;;8.48;;
7336;SDS011;54510;42.016;23.098;2024-02-21T09:20:20;15.30;;;8.10;;
7336;SDS011;54510;42.016;23.098;2024-02-21T09:22:45;11.80;;;7.13;;
7336;SDS011;54510;42.016;23.098;2024-02-21T09:25:10;11.45;;;6.85;;
7336;SDS011;54510;42.016;23.098;2024-02-21T09:27:37;22.95;;;14.23;;
7336;SDS011;54510;42.016;23.098;2024-02-21T09:30:02;15.13;;;8.93;;
7336;SDS011;54510;42.016;23.098;2024-02-21T09:32:29;12.45;;;7.47;;
7336;SDS011;54510;42.016;23.098;2024-02-21T09:34:54;12.00;;;6.45;;
7336;SDS011;54510;42.016;23.098;2024-02-21T09:37:21;13.25;;;6.25;;
7336;SDS011;54510;42.016;23.098;2024-02-21T09:39:46;12.05;;;7.50;;
7336;SDS011;54510;42.016;23.098;2024-02-21T09:42:12;20.50;;;12.35;;
7336;SDS011;54510;42.016;23.098;2024-02-21T09:44:39;12.15;;;7.63;;
7336;SDS011;54510;42.016;23.098;2024-02-21T09:47:17;16.20;;;7.68;;
7336;SDS011;54510;42.016;23.098;2024-02-21T09:49:44;15.27;;;8.40;;
7336;SDS011;54510;42.016;23.098;2024-02-21T09:52:09;14.80;;;5.95;;
7336;SDS011;54510;42.016;23.098;2024-02-21T09:54:36;8.52;;;4.57;;
7336;SDS011;54510;42.016;23.098;2024-02-21T09:57:03;7.45;;;4.82;;
7336;SDS011;54510;42.016;23.098;2024-02-21T09:59:28;11.65;;;5.32;;
7336;SDS011;54510;42.016;23.098;2024-02-21T10:01:55;13.73;;;5.15;;
7336;SDS011;54510;42.016;23.098;2024-02-21T10:04:20;13.77;;;6.55;;
7336;SDS011;54510;42.016;23.098;2024-02-21T10:06:46;11.15;;;4.40;;
7336;SDS011;54510;42.016;23.098;2024-02-21T10:09:23;12.88;;;6.80;;
7336;SDS011;54510;42.016;23.098;2024-02-21T10:11:49;6.57;;;2.90;;
7336;SDS011;54510;42.016;23.098;2024-02-21T10:14:15;7.18;;;3.30;;
7336;SDS011;54510;42.016;23.098;2024-02-21T10:16:40;10.07;;;3.35;;
7336;SDS011;54510;42.016;23.098;2024-02-21T10:19:06;9.85;;;5.88;;
7336;SDS011;54510;42.016;23.098;2024-02-21T10:21:31;10.63;;;3.38;;
7336;SDS011;54510;42.016;23.098;2024-02-21T10:23:56;5.60;;;2.95;;
7336;SDS011;54510;42.016;23.098;2024-02-21T10:26:22;12.45;;;4.00;;
7336;SDS011;54510;42.016;23.098;2024-02-21T10:28:47;16.08;;;9.50;;
7336;SDS011;54510;42.016;23.098;2024-02-21T10:31:28;7.15;;;3.45;;
7336;SDS011;54510;42.016;23.098;2024-02-21T10:33:57;10.63;;;4.90;;
7336;SDS011;54510;42.016;23.098;2024-02-21T10:36:23;5.95;;;3.60;;
7336;SDS011;54510;42.016;23.098;2024-02-21T10:38:49;6.45;;;3.28;;
7336;SDS011;54510;42.016;23.098;2024-02-21T10:41:14;6.10;;;2.95;;
7336;SDS011;54510;42.016;23.098;2024-02-21T10:43:41;7.32;;;3.67;;
7336;SDS011;54510;42.016;23.098;2024-02-21T10:46:07;12.73;;;3.35;;
7336;SDS011;54510;42.016;23.098;2024-02-21T10:48:36;4.60;;;2.55;;
7336;SDS011;54510;42.016;23.098;2024-02-21T10:53:44;4.75;;;2.70;;
7336;SDS011;54510;42.016;23.098;2024-02-21T10:56:30;5.72;;;3.40;;
7336;SDS011;54510;42.016;23.098;2024-02-21T10:58:59;4.55;;;2.45;;
7336;SDS011;54510;42.016;23.098;2024-02-21T11:01:25;3.85;;;1.85;;
7336;SDS011;54510;42.016;23.098;2024-02-21T11:03:52;4.82;;;2.70;;
7336;SDS011;54510;42.016;23.098;2024-02-21T11:06:19;4.55;;;2.55;;
7336;SDS011;54510;42.016;23.098;2024-02-21T11:08:45;6.10;;;3.53;;
7336;SDS011;54510;42.016;23.098;2024-02-21T11:11:12;7.15;;;3.15;;
7336;SDS011;54510;42.016;23.098;2024-02-21T11:13:42;6.25;;;2.90;;
7336;SDS011;54510;42.016;23.098;2024-02-21T11:16:11;6.15;;;2.92;;
7336;SDS011;54510;42.016;23.098;2024-02-21T11:18:37;8.93;;;3.05;;
7336;SDS011;54510;42.016;23.098;2024-02-21T11:21:02;7.72;;;4.05;;
7336;SDS011;54510;42.016;23.098;2024-02-21T11:23:30;4.70;;;2.53;;
7336;SDS011;54510;42.016;23.098;2024-02-21T11:26:10;4.03;;;2.40;;
7336;SDS011;54510;42.016;23.098;2024-02-21T11:28:44;5.32;;;3.00;;
7336;SDS011;54510;42.016;23.098;2024-02-21T11:31:13;4.65;;;2.75;;
7336;SDS011;54510;42.016;23.098;2024-02-21T11:33:41;7.13;;;3.80;;
7336;SDS011;54510;42.016;23.098;2024-02-21T11:36:09;8.00;;;4.50;;
7336;SDS011;54510;42.016;23.098;2024-02-21T11:38:35;5.88;;;3.22;;
7336;SDS011;54510;42.016;23.098;2024-02-21T11:41:01;5.07;;;2.03;;
7336;SDS011;54510;42.016;23.098;2024-02-21T11:43:26;8.13;;;3.20;;
7336;SDS011;54510;42.016;23.098;2024-02-21T11:46:00;6.05;;;2.97;;
7336;SDS011;54510;42.016;23.098;2024-02-21T11:48:26;5.68;;;2.90;;
7336;SDS011;54510;42.016;23.098;2024-02-21T11:50:54;7.15;;;2.78;;
7336;SDS011;54510;42.016;23.098;2024-02-21T11:53:20;13.00;;;3.15;;
7336;SDS011;54510;42.016;23.098;2024-02-21T11:55:45;10.02;;;3.90;;
7336;SDS011;54510;42.016;23.098;2024-02-21T11:58:11;6.53;;;2.53;;
7336;SDS011;54510;42.016;23.098;2024-02-21T12:00:36;8.82;;;2.30;;
7336;SDS011;54510;42.016;23.098;2024-02-21T12:03:01;12.70;;;4.60;;
7336;SDS011;54510;42.016;23.098;2024-02-21T12:05:27;7.88;;;3.17;;
7336;SDS011;54510;42.016;23.098;2024-02-21T12:07:53;7.72;;;3.67;;
7336;SDS011;54510;42.016;23.098;2024-02-21T12:10:19;5.53;;;2.22;;
7336;SDS011;54510;42.016;23.098;2024-02-21T12:12:45;8.43;;;2.53;;
7336;SDS011;54510;42.016;23.098;2024-02-21T12:15:10;4.43;;;2.40;;
7336;SDS011;54510;42.016;23.098;2024-02-21T12:17:36;5.50;;;2.42;;
7336;SDS011;54510;42.016;23.098;2024-02-21T12:20:02;6.00;;;2.90;;
7336;SDS011;54510;42.016;23.098;2024-02-21T12:22:30;4.60;;;2.22;;
7336;SDS011;54510;42.016;23.098;2024-02-21T12:24:57;4.35;;;1.98;;
7336;SDS011;54510;42.016;23.098;2024-02-21T12:27:22;5.32;;;1.95;;
7336;SDS011;54510;42.016;23.098;2024-02-21T12:29:48;9.95;;;4.20;;
7336;SDS011;54510;42.016;23.098;2024-02-21T12:32:14;3.17;;;2.15;;
7336;SDS011;54510;42.016;23.098;2024-02-21T12:34:39;7.25;;;2.78;;
7336;SDS011;54510;42.016;23.098;2024-02-21T12:37:04;7.22;;;3.13;;
7336;SDS011;54510;42.016;23.098;2024-02-21T12:39:30;5.85;;;2.53;;
7336;SDS011;54510;42.016;23.098;2024-02-21T12:41:56;5.47;;;3.15;;
7336;SDS011;54510;42.016;23.098;2024-02-21T12:44:22;7.03;;;3.20;;
7336;SDS011;54510;42.016;23.098;2024-02-21T12:46:47;6.28;;;2.03;;
7336;SDS011;54510;42.016;23.098;2024-02-21T12:49:17;6.10;;;2.35;;
7336;SDS011;54510;42.016;23.098;2024-02-21T12:51:43;6.07;;;2.90;;
7336;SDS011;54510;42.016;23.098;2024-02-21T12:54:08;4.45;;;1.95;;
7336;SDS011;54510;42.016;23.098;2024-02-21T12:56:36;4.43;;;2.28;;
7336;SDS011;54510;42.016;23.098;2024-02-21T12:59:01;5.10;;;2.10;;
7336;SDS011;54510;42.016;23.098;2024-02-21T13:01:26;5.22;;;2.40;;
7336;SDS011;54510;42.016;23.098;2024-02-21T13:03:53;5.80;;;2.65;;
7336;SDS011;54510;42.016;23.098;2024-02-21T13:06:19;5.18;;;1.95;;
7336;SDS011;54510;42.016;23.098;2024-02-21T13:08:44;4.60;;;1.63;;
7336;SDS011;54510;42.016;23.098;2024-02-21T13:11:10;5.80;;;2.45;;
7336;SDS011;54510;42.016;23.098;2024-02-21T13:13:37;3.75;;;2.25;;
7336;SDS011;54510;42.016;23.098;2024-02-21T13:16:03;6.30;;;2.08;;
7336;SDS011;54510;42.016;23.098;2024-02-21T13:18:28;3.65;;;1.90;;
7336;SDS011;54510;42.016;23.098;2024-02-21T13:20:53;4.93;;;2.25;;
7336;SDS011;54510;42.016;23.098;2024-02-21T13:23:19;4.65;;;1.60;;
7336;SDS011;54510;42.016;23.098;2024-02-21T13:25:46;3.85;;;1.85;;
7336;SDS011;54510;42.016;23.098;2024-02-21T13:28:12;5.18;;;2.50;;
7336;SDS011;54510;42.016;23.098;2024-02-21T13:30:37;7.75;;;2.17;;
7336;SDS011;54510;42.016;23.098;2024-02-21T13:33:03;7.18;;;3.25;;
7336;SDS011;54510;42.016;23.098;2024-02-21T13:35:28;9.20;;;5.03;;
7336;SDS011;54510;42.016;23.098;2024-02-21T13:37:53;3.78;;;2.00;;
7336;SDS011;54510;42.016;23.098;2024-02-21T13:40:19;4.72;;;1.75;;
7336;SDS011;54510;42.016;23.098;2024-02-21T13:42:44;5.43;;;2.38;;
7336;SDS011;54510;42.016;23.098;2024-02-21T13:45:09;3.42;;;2.00;;
7336;SDS011;54510;42.016;23.098;2024-02-21T13:47:35;6.45;;;2.85;;
7336;SDS011;54510;42.016;23.098;2024-02-21T13:50:06;5.10;;;2.40;;
7336;SDS011;54510;42.016;23.098;2024-02-21T13:52:36;3.85;;;2.10;;
7336;SDS011;54510;42.016;23.098;2024-02-21T13:55:02;5.40;;;1.92;;
7336;SDS011;54510;42.016;23.098;2024-02-21T13:57:28;5.38;;;1.98;;
7336;SDS011;54510;42.016;23.098;2024-02-21T13:59:53;3.75;;;2.10;;
7336;SDS011;54510;42.016;23.098;2024-02-21T14:02:18;4.85;;;2.22;;
7336;SDS011;54510;42.016;23.098;2024-02-21T14:04:43;6.45;;;2.78;;
7336;SDS011;54510;42.016;23.098;2024-02-21T14:07:08;6.22;;;2.40;;
7336;SDS011;54510;42.016;23.098;2024-02-21T14:09:34;8.23;;;3.08;;
7336;SDS011;54510;42.016;23.098;2024-02-21T14:11:59;7.40;;;2.67;;
7336;SDS011;54510;42.016;23.098;2024-02-21T14:14:25;6.32;;;2.95;;
7336;SDS011;54510;42.016;23.098;2024-02-21T14:16:50;5.43;;;3.55;;
7336;SDS011;54510;42.016;23.098;2024-02-21T14:19:15;7.93;;;2.83;;
7336;SDS011;54510;42.016;23.098;2024-02-21T14:21:40;7.25;;;2.97;;
7336;SDS011;54510;42.016;23.098;2024-02-21T14:24:06;4.35;;;2.78;;
7336;SDS011;54510;42.016;23.098;2024-02-21T14:26:31;7.75;;;3.25;;
7336;SDS011;54510;42.016;23.098;2024-02-21T14:28:57;15.32;;;3.88;;